Time;durP1;ratioP1;P1;durP2;ratioP2;P2;SDS_P1;SDS_P2;PMS_P1;PMS_P2;Temp;Humidity;BMP_temperature;BMP_pressure;BME280_temperature;BME280_humidity;BME280_pressure;Samples;Min_cycle;Max_cycle;Signal;HPM_P1;HPM_P2
2023/10/23 00:00:48;;;;;;;3.20;2.90;;;16.90;72.40;;;;;;5133562;27;20863;-67
2023/10/23 00:03:13;;;;;;;3.35;3.05;;;16.90;72.40;;;;;;5134044;27;20602;-67
2023/10/23 00:05:39;;;;;;;3.13;2.75;;;16.90;72.40;;;;;;5134118;27;20183;-66
2023/10/23 00:08:04;;;;;;;2.95;2.75;;;16.90;72.40;;;;;;5133082;27;20287;-68
2023/10/23 00:10:30;;;;;;;3.50;3.20;;;16.90;72.40;;;;;;5134074;27;20176;-66
2023/10/23 00:12:55;;;;;;;2.95;2.70;;;16.90;72.40;;;;;;5134244;27;20523;-67
2023/10/23 00:15:21;;;;;;;3.53;2.80;;;16.90;72.40;;;;;;5133141;27;20176;-67
2023/10/23 00:17:46;;;;;;;3.13;2.83;;;16.90;72.40;;;;;;5133991;27;20165;-67
2023/10/23 00:20:12;;;;;;;3.72;3.35;;;16.90;72.40;;;;;;5133816;27;20164;-67
2023/10/23 00:22:38;;;;;;;2.88;2.65;;;16.90;72.40;;;;;;5132786;27;20221;-67
2023/10/23 00:25:03;;;;;;;3.17;2.88;;;16.80;72.40;;;;;;5133779;27;20638;-67
2023/10/23 00:27:29;;;;;;;2.67;2.47;;;16.90;72.40;;;;;;5133782;27;20211;-66
2023/10/23 00:29:54;;;;;;;3.08;2.83;;;16.80;72.40;;;;;;5133368;27;20177;-67
2023/10/23 00:32:20;;;;;;;2.97;2.75;;;16.90;72.50;;;;;;5133452;27;20177;-67
2023/10/23 00:34:45;;;;;;;3.30;2.47;;;16.80;72.40;;;;;;5133806;27;20177;-67
2023/10/23 00:37:11;;;;;;;3.13;2.90;;;16.80;72.40;;;;;;5132667;27;20172;-67
2023/10/23 00:39:37;;;;;;;3.15;2.88;;;16.80;72.40;;;;;;5133755;27;20253;-67
2023/10/23 00:42:02;;;;;;;3.63;3.17;;;16.90;72.40;;;;;;5133659;27;20534;-68
2023/10/23 00:44:28;;;;;;;3.10;2.80;;;16.80;72.40;;;;;;5132895;28;20203;-67
2023/10/23 00:46:54;;;;;;;3.00;2.70;;;16.80;72.40;;;;;;5133491;28;20288;-68
2023/10/23 00:49:19;;;;;;;2.75;2.55;;;16.80;72.30;;;;;;5114687;28;20183;-67
2023/10/23 00:51:45;;;;;;;3.08;2.80;;;16.90;72.50;;;;;;5115065;28;20172;-67
2023/10/23 00:54:11;;;;;;;3.00;2.70;;;16.80;72.30;;;;;;5133520;28;20172;-67
2023/10/23 00:56:36;;;;;;;2.88;2.67;;;16.80;72.30;;;;;;5132697;28;20165;-67
2023/10/23 00:59:02;;;;;;;2.80;2.60;;;16.80;72.40;;;;;;5133535;28;20518;-67
2023/10/23 01:01:28;;;;;;;3.33;3.03;;;16.80;72.40;;;;;;5115040;28;20193;-67
2023/10/23 01:03:54;;;;;;;2.88;2.50;;;16.80;72.40;;;;;;5114786;28;20200;-67
2023/10/23 01:06:20;;;;;;;3.20;2.60;;;16.80;72.30;;;;;;5133129;28;20563;-67
2023/10/23 01:08:45;;;;;;;3.08;2.45;;;16.80;72.30;;;;;;5133134;28;20323;-67
2023/10/23 01:11:11;;;;;;;3.83;3.08;;;16.80;72.40;;;;;;5114389;28;20264;-67
2023/10/23 01:13:37;;;;;;;3.72;2.55;;;16.70;72.30;;;;;;5133098;28;20263;-66
2023/10/23 01:16:03;;;;;;;2.65;2.45;;;16.80;72.40;;;;;;5133261;28;20181;-67
2023/10/23 01:18:28;;;;;;;3.03;2.80;;;16.80;72.30;;;;;;5132340;28;20283;-67
2023/10/23 01:20:54;;;;;;;2.75;2.55;;;16.70;72.30;;;;;;5133246;28;20172;-67
2023/10/23 01:23:21;;;;;;;2.35;2.17;;;16.70;72.20;;;;;;5133172;28;20173;-67
2023/10/23 01:25:47;;;;;;;4.47;2.67;;;16.80;72.20;;;;;;5097437;28;20653;-66
2023/10/23 01:28:12;;;;;;;2.60;2.40;;;16.70;72.20;;;;;;5133089;28;20204;-66
2023/10/23 01:30:40;;;;;;;3.17;2.83;;;16.70;73.00;;;;;;5133203;28;20677;-66
2023/10/23 01:33:05;;;;;;;3.50;2.50;;;16.70;72.20;;;;;;5132266;27;20245;-67
2023/10/23 01:35:31;;;;;;;2.75;2.53;;;16.70;72.20;;;;;;5136575;27;20619;-67
2023/10/23 01:37:56;;;;;;;2.50;2.30;;;16.70;72.20;;;;;;5137041;27;20173;-67
2023/10/23 01:40:22;;;;;;;2.92;2.65;;;16.70;72.20;;;;;;5135893;27;20169;-67
2023/10/23 01:42:48;;;;;;;2.30;2.10;;;16.70;72.40;;;;;;5136970;27;20220;-67
2023/10/23 01:45:14;;;;;;;2.63;2.42;;;16.70;72.30;;;;;;5136599;27;20636;-67
2023/10/23 01:47:40;;;;;;;2.60;2.40;;;16.70;72.20;;;;;;5135922;27;20239;-67
2023/10/23 01:50:06;;;;;;;2.78;2.58;;;16.70;72.20;;;;;;5136612;27;20168;-67
2023/10/23 01:52:31;;;;;;;2.97;2.58;;;16.70;72.20;;;;;;5136827;27;20176;-67
2023/10/23 01:54:58;;;;;;;2.55;2.35;;;16.70;72.30;;;;;;5136239;27;20168;-67
2023/10/23 01:57:24;;;;;;;2.55;2.35;;;16.70;72.20;;;;;;5136754;27;20177;-68
2023/10/23 01:59:49;;;;;;;2.55;2.35;;;16.70;72.20;;;;;;5135875;27;20589;-67
2023/10/23 02:02:15;;;;;;;2.80;2.47;;;16.70;72.20;;;;;;5136438;27;20168;-67
2023/10/23 02:04:40;;;;;;;2.53;2.33;;;16.70;72.20;;;;;;5136686;27;20176;-67
2023/10/23 02:07:06;;;;;;;2.50;2.30;;;16.70;72.20;;;;;;5135486;27;20227;-67
2023/10/23 02:09:32;;;;;;;2.78;2.50;;;16.70;72.20;;;;;;5136453;27;20173;-66
2023/10/23 02:11:58;;;;;;;2.35;2.25;;;16.70;72.30;;;;;;5136466;27;20177;-67
2023/10/23 02:14:23;;;;;;;3.05;2.75;;;16.70;72.30;;;;;;5135533;27;20195;-67
2023/10/23 02:16:49;;;;;;;3.10;2.80;;;16.70;72.20;;;;;;5136335;27;20213;-66
2023/10/23 02:19:14;;;;;;;2.40;2.30;;;16.70;72.40;;;;;;5136098;27;20164;-67
2023/10/23 02:21:40;;;;;;;2.30;2.10;;;16.70;72.30;;;;;;5135504;27;20217;-67
2023/10/23 02:24:06;;;;;;;2.60;2.40;;;16.70;72.40;;;;;;5135681;27;20173;-67
2023/10/23 02:26:31;;;;;;;2.97;2.63;;;16.70;72.30;;;;;;5135958;27;20183;-67
2023/10/23 02:28:57;;;;;;;2.60;2.40;;;16.70;72.40;;;;;;5135454;27;20173;-66
2023/10/23 02:31:23;;;;;;;2.92;2.67;;;16.70;72.40;;;;;;5135167;27;20704;-67
2023/10/23 02:33:49;;;;;;;2.53;2.33;;;16.70;72.40;;;;;;5135857;27;20172;-67
2023/10/23 02:36:15;;;;;;;2.78;2.53;;;16.70;72.40;;;;;;5135107;27;20259;-67
2023/10/23 02:38:41;;;;;;;2.72;2.53;;;16.70;72.40;;;;;;5135943;27;20177;-67
2023/10/23 02:41:07;;;;;;;2.65;2.45;;;16.70;72.40;;;;;;5135711;27;20172;-67
2023/10/23 02:43:32;;;;;;;3.40;2.40;;;16.70;72.40;;;;;;5134949;27;20179;-67
2023/10/23 02:46:01;;;;;;;2.80;2.15;;;16.70;72.40;;;;;;5135662;27;20263;-67
2023/10/23 02:48:27;;;;;;;2.50;2.30;;;16.70;72.40;;;;;;5135169;27;20251;-67
2023/10/23 02:50:55;;;;;;;2.90;2.60;;;16.70;72.50;;;;;;5135170;27;20211;-67
2023/10/23 02:53:21;;;;;;;2.40;2.17;;;16.70;72.50;;;;;;5135447;27;20263;-68
2023/10/23 02:55:47;;;;;;;2.65;2.45;;;16.60;72.40;;;;;;5135586;27;20170;-68
2023/10/23 02:58:16;;;;;;;2.40;2.20;;;16.60;72.50;;;;;;5134703;27;20196;-68
2023/10/23 03:00:42;;;;;;;2.92;2.53;;;16.60;72.40;;;;;;5135330;27;20707;-68
2023/10/23 03:03:11;;;;;;;3.00;2.20;;;16.70;72.50;;;;;;5134740;27;20187;-67
2023/10/23 03:05:39;;;;;;;2.70;2.50;;;16.60;72.40;;;;;;5135131;27;20538;-67
2023/10/23 03:08:05;;;;;;;2.20;2.00;;;16.60;72.50;;;;;;5134982;27;20674;-67
2023/10/23 03:10:31;;;;;;;3.03;2.63;;;16.70;72.50;;;;;;5134293;27;20177;-67
2023/10/23 03:12:56;;;;;;;3.05;2.75;;;16.70;72.60;;;;;;5135387;27;20173;-67
2023/10/23 03:15:22;;;;;;;3.22;2.60;;;16.60;72.40;;;;;;5134729;27;20173;-67
2023/10/23 03:17:47;;;;;;;2.58;2.38;;;16.60;72.40;;;;;;5134357;27;20168;-67
2023/10/23 03:20:13;;;;;;;2.60;2.22;;;16.60;72.40;;;;;;5134925;27;20165;-67
2023/10/23 03:22:38;;;;;;;3.13;2.65;;;16.50;72.40;;;;;;5135019;27;20259;-67
2023/10/23 03:25:05;;;;;;;2.88;2.60;;;16.60;72.40;;;;;;5134164;27;20300;-66
2023/10/23 03:27:32;;;;;;;2.55;2.35;;;16.60;72.50;;;;;;5134591;27;20228;-67
2023/10/23 03:29:57;;;;;;;2.40;2.20;;;16.60;72.50;;;;;;5134796;27;20207;-66
2023/10/23 03:32:23;;;;;;;3.55;2.65;;;16.60;72.50;;;;;;5133989;27;20252;-67
2023/10/23 03:34:49;;;;;;;4.05;2.67;;;16.60;72.50;;;;;;5134632;27;20176;-67
2023/10/23 03:37:14;;;;;;;3.03;2.72;;;16.60;72.50;;;;;;5134442;27;20184;-68
2023/10/23 03:39:40;;;;;;;3.00;2.70;;;16.60;72.60;;;;;;5134113;27;20180;-67
2023/10/23 03:42:06;;;;;;;2.85;2.53;;;16.60;72.50;;;;;;5134574;27;20164;-67
2023/10/23 03:44:34;;;;;;;3.22;2.92;;;16.60;72.60;;;;;;5134353;27;20267;-67
2023/10/23 03:47:00;;;;;;;2.78;2.58;;;16.60;72.60;;;;;;5133495;27;20292;-67
2023/10/23 03:49:26;;;;;;;2.70;2.50;;;16.60;72.60;;;;;;5134614;27;20176;-67
2023/10/23 03:51:51;;;;;;;2.80;2.60;;;16.60;72.60;;;;;;5134349;27;20523;-67
2023/10/23 03:54:17;;;;;;;2.70;2.50;;;16.60;72.60;;;;;;5133437;27;20177;-67
2023/10/23 03:56:42;;;;;;;3.78;2.47;;;16.50;72.50;;;;;;5133956;27;20638;-68
2023/10/23 03:59:08;;;;;;;2.65;2.42;;;16.60;72.70;;;;;;5134157;27;20176;-67
2023/10/23 04:01:33;;;;;;;2.75;2.55;;;16.60;72.70;;;;;;5133565;27;20176;-67
2023/10/23 04:03:59;;;;;;;3.28;2.40;;;16.60;72.70;;;;;;5134233;27;20168;-67
2023/10/23 04:06:24;;;;;;;3.13;2.65;;;16.60;72.60;;;;;;5133587;27;20168;-67
2023/10/23 04:08:53;;;;;;;3.03;2.83;;;16.60;72.60;;;;;;5134192;27;20205;-67
2023/10/23 04:11:18;;;;;;;3.10;2.80;;;16.60;72.70;;;;;;5133759;27;20185;-67
2023/10/23 04:13:44;;;;;;;2.83;2.63;;;16.60;72.60;;;;;;5133472;27;20180;-67
2023/10/23 04:16:09;;;;;;;3.15;2.85;;;16.60;72.70;;;;;;5133974;27;20176;-67
2023/10/23 04:18:35;;;;;;;2.90;2.65;;;16.60;72.60;;;;;;5133706;27;20183;-67
2023/10/23 04:21:11;;;;;;;2.88;2.67;;;16.60;72.70;;;;;;5133248;27;20184;-67
2023/10/23 04:23:37;;;;;;;2.92;2.70;;;16.60;72.70;;;;;;5133771;27;20524;-67
2023/10/23 04:26:03;;;;;;;2.95;2.75;;;16.60;72.70;;;;;;5133714;27;20203;-67
2023/10/23 04:28:29;;;;;;;3.30;3.00;;;16.50;72.70;;;;;;5132801;27;20739;-66
2023/10/23 04:30:55;;;;;;;2.83;2.63;;;16.50;72.70;;;;;;5134037;27;20635;-67
2023/10/23 04:33:21;;;;;;;2.70;2.50;;;16.60;72.70;;;;;;5133589;27;20662;-67
2023/10/23 04:35:54;;;;;;;3.30;2.90;;;16.60;72.80;;;;;;5132964;27;20177;-67
2023/10/23 04:38:25;;;;;;;3.10;2.70;;;16.60;72.70;;;;;;5133255;27;20653;-68
2023/10/23 04:40:53;;;;;;;2.58;2.38;;;16.60;72.80;;;;;;5133412;27;20534;-67
2023/10/23 04:43:18;;;;;;;4.90;2.80;;;16.60;72.80;;;;;;5132613;27;20180;-67
2023/10/23 04:45:44;;;;;;;2.50;2.30;;;16.60;72.80;;;;;;5133704;27;20179;-67
2023/10/23 04:48:09;;;;;;;2.47;2.30;;;16.50;72.80;;;;;;5133189;28;20698;-67
2023/10/23 04:50:37;;;;;;;2.88;2.47;;;16.50;72.80;;;;;;5132703;28;20164;-68
2023/10/23 04:53:02;;;;;;;2.85;2.65;;;16.60;72.80;;;;;;5133374;28;20183;-67
2023/10/23 04:55:33;;;;;;;2.78;2.58;;;16.50;72.80;;;;;;5133143;28;20168;-68
2023/10/23 04:57:58;;;;;;;2.78;2.58;;;16.50;72.80;;;;;;5133561;28;20256;-68
2023/10/23 05:00:24;;;;;;;2.75;2.55;;;16.50;72.80;;;;;;5133532;28;20168;-69
2023/10/23 05:02:49;;;;;;;2.55;2.38;;;16.50;72.90;;;;;;5132799;28;20172;-67
2023/10/23 05:05:15;;;;;;;2.60;2.40;;;16.50;72.80;;;;;;5133262;28;20165;-67
2023/10/23 05:07:42;;;;;;;2.50;2.30;;;16.50;72.80;;;;;;5133226;27;20260;-67
2023/10/23 05:10:08;;;;;;;2.85;2.55;;;16.50;72.80;;;;;;5135735;27;20176;-67
2023/10/23 05:12:35;;;;;;;3.58;2.85;;;16.50;72.90;;;;;;5137538;27;20203;-67
2023/10/23 05:15:04;;;;;;;3.40;3.05;;;16.50;72.90;;;;;;5137462;27;20172;-67
2023/10/23 05:17:29;;;;;;;2.63;2.42;;;16.50;72.90;;;;;;5136480;27;20527;-67
2023/10/23 05:19:55;;;;;;;2.75;2.55;;;16.50;72.80;;;;;;5137373;27;20263;-68
2023/10/23 05:22:20;;;;;;;2.63;2.42;;;16.50;72.80;;;;;;5137059;27;20169;-67
2023/10/23 05:24:46;;;;;;;3.13;2.85;;;16.50;72.80;;;;;;5136771;27;20176;-67
2023/10/23 05:27:13;;;;;;;2.95;2.75;;;16.50;72.80;;;;;;5137188;27;20228;-67
2023/10/23 05:29:38;;;;;;;2.65;2.45;;;16.50;72.90;;;;;;5137273;27;20259;-67
2023/10/23 05:32:04;;;;;;;2.72;2.53;;;16.50;72.90;;;;;;5136350;27;20259;-68
2023/10/23 05:34:30;;;;;;;2.67;2.47;;;16.50;72.90;;;;;;5137071;27;20176;-67
2023/10/23 05:36:55;;;;;;;2.63;2.42;;;16.50;72.90;;;;;;5137063;27;20171;-68
2023/10/23 05:39:24;;;;;;;2.78;2.58;;;16.50;72.90;;;;;;5135908;27;20541;-67
2023/10/23 05:41:49;;;;;;;3.63;2.85;;;16.50;72.90;;;;;;5137018;27;20256;-68
2023/10/23 05:44:15;;;;;;;2.70;2.50;;;16.50;72.90;;;;;;5136571;27;20647;-67
2023/10/23 05:46:40;;;;;;;2.97;2.78;;;16.50;72.90;;;;;;5135998;27;20270;-67
2023/10/23 05:49:06;;;;;;;3.20;2.88;;;16.50;72.90;;;;;;5136690;27;20176;-67
2023/10/23 05:51:31;;;;;;;2.63;2.30;;;16.50;72.90;;;;;;5136559;27;20164;-67
2023/10/23 05:53:57;;;;;;;2.47;2.28;;;16.50;72.90;;;;;;5136063;27;20168;-67
2023/10/23 05:56:23;;;;;;;3.47;3.17;;;16.50;73.00;;;;;;5136416;27;20498;-68
2023/10/23 05:58:50;;;;;;;2.58;2.38;;;16.50;73.00;;;;;;5136055;27;20172;-69
2023/10/23 06:01:15;;;;;;;3.03;2.72;;;16.50;73.00;;;;;;5136366;27;20188;-67
2023/10/23 06:03:41;;;;;;;2.50;2.30;;;16.50;73.00;;;;;;5136480;27;20515;-67
2023/10/23 06:06:07;;;;;;;3.05;2.80;;;16.50;72.90;;;;;;5135487;27;20694;-67
2023/10/23 06:08:33;;;;;;;2.85;2.65;;;16.50;72.90;;;;;;5136440;27;20208;-67
2023/10/23 06:10:59;;;;;;;2.78;2.58;;;16.50;72.80;;;;;;5136168;27;20217;-67
2023/10/23 06:13:24;;;;;;;2.50;2.30;;;16.60;72.70;;;;;;5135452;27;20547;-67
2023/10/23 06:15:50;;;;;;;2.80;2.60;;;16.60;72.70;;;;;;5136279;27;20173;-67
2023/10/23 06:18:16;;;;;;;2.83;2.63;;;16.60;72.70;;;;;;5136080;27;20168;-67
2023/10/23 06:20:41;;;;;;;3.20;3.00;;;16.60;72.60;;;;;;5134959;27;20180;-67
2023/10/23 06:23:07;;;;;;;2.90;2.60;;;16.60;72.70;;;;;;5136017;27;20175;-67
2023/10/23 06:25:33;;;;;;;3.17;2.88;;;16.60;72.70;;;;;;5136096;27;20168;-67
2023/10/23 06:27:59;;;;;;;3.17;2.88;;;16.60;72.60;;;;;;5135449;27;20212;-67
2023/10/23 06:30:25;;;;;;;2.78;2.58;;;16.60;72.70;;;;;;5136066;27;20245;-66
2023/10/23 06:32:50;;;;;;;2.70;2.50;;;16.60;73.50;;;;;;5135990;27;20223;-67
2023/10/23 06:35:16;;;;;;;3.00;2.70;;;16.60;72.70;;;;;;5134935;27;20168;-67
2023/10/23 06:37:41;;;;;;;2.85;2.63;;;16.50;72.70;;;;;;5136012;27;20181;-67
2023/10/23 06:40:07;;;;;;;2.75;2.55;;;16.60;72.70;;;;;;5135942;27;20160;-67
2023/10/23 06:42:34;;;;;;;2.70;2.50;;;16.60;72.80;;;;;;5134832;27;20180;-67
2023/10/23 06:44:59;;;;;;;3.10;2.80;;;16.60;72.70;;;;;;5135429;27;20551;-67
2023/10/23 06:47:25;;;;;;;3.17;2.97;;;16.60;72.60;;;;;;5135392;27;20234;-67
2023/10/23 06:49:51;;;;;;;3.35;3.15;;;16.60;72.50;;;;;;5134649;27;20627;-67
2023/10/23 06:52:16;;;;;;;2.90;2.70;;;16.60;72.50;;;;;;5135474;27;20221;-67
2023/10/23 06:54:42;;;;;;;2.90;2.65;;;16.60;72.60;;;;;;5135668;27;20173;-67
2023/10/23 06:57:08;;;;;;;3.22;3.03;;;16.60;73.30;;;;;;5134657;27;20168;-68
2023/10/23 06:59:34;;;;;;;2.72;2.47;;;16.60;72.50;;;;;;5135377;27;20184;-67
2023/10/23 07:02:00;;;;;;;3.00;2.80;;;16.60;72.50;;;;;;5135293;27;20228;-67
2023/10/23 07:04:26;;;;;;;2.75;2.50;;;16.60;72.60;;;;;;5134715;27;20176;-67
2023/10/23 07:06:53;;;;;;;2.75;2.55;;;16.60;72.60;;;;;;5135051;27;20575;-67
2023/10/23 07:09:18;;;;;;;3.42;3.13;;;16.60;72.60;;;;;;5134454;27;20188;-67
2023/10/23 07:11:46;;;;;;;2.88;2.67;;;16.60;72.60;;;;;;5135253;27;20255;-67
2023/10/23 07:14:13;;;;;;;3.22;3.03;;;16.60;72.60;;;;;;5117293;27;20176;-67
2023/10/23 07:16:39;;;;;;;3.28;2.97;;;16.60;72.60;;;;;;5134327;27;20172;-67
2023/10/23 07:19:04;;;;;;;4.43;3.47;;;16.60;72.40;;;;;;5134886;27;20519;-67
2023/10/23 07:21:30;;;;;;;3.30;2.88;;;16.60;72.80;;;;;;5134714;27;20168;-67
2023/10/23 07:23:56;;;;;;;2.90;2.67;;;16.70;72.80;;;;;;5134191;27;20268;-67
2023/10/23 07:26:21;;;;;;;3.65;3.00;;;16.60;72.80;;;;;;5134828;27;20183;-67
2023/10/23 07:28:47;;;;;;;5.13;2.78;;;16.60;72.80;;;;;;5134665;27;20682;-67
2023/10/23 07:31:13;;;;;;;4.95;3.00;;;16.60;72.90;;;;;;5133281;27;20172;-68
2023/10/23 07:33:38;;;;;;;3.63;3.05;;;16.60;72.90;;;;;;5134800;27;20692;-67
2023/10/23 07:36:05;;;;;;;3.17;2.88;;;16.60;73.00;;;;;;5134652;27;20255;-67
2023/10/23 07:38:31;;;;;;;4.03;3.05;;;16.60;73.00;;;;;;5134513;27;20221;-68
2023/10/23 07:40:57;;;;;;;3.45;2.70;;;16.60;73.10;;;;;;5136177;27;20172;-68
2023/10/23 07:43:24;;;;;;;3.45;3.15;;;16.60;73.10;;;;;;5134248;27;20180;-67
2023/10/23 07:45:49;;;;;;;4.03;2.80;;;16.60;73.10;;;;;;5133799;27;20313;-67
2023/10/23 07:48:15;;;;;;;5.72;3.22;;;16.60;73.10;;;;;;5133827;27;20315;-67
2023/10/23 07:50:40;;;;;;;3.60;2.80;;;16.60;73.10;;;;;;5134354;27;20168;-68
2023/10/23 07:53:06;;;;;;;4.72;3.00;;;16.60;73.20;;;;;;5133813;27;20184;-67
2023/10/23 07:55:31;;;;;;;3.30;2.50;;;16.60;73.20;;;;;;5134355;27;20173;-67
2023/10/23 07:57:57;;;;;;;4.43;2.88;;;16.60;73.20;;;;;;5134437;27;20642;-67
2023/10/23 08:00:23;;;;;;;4.20;2.78;;;16.60;73.20;;;;;;5133435;27;20168;-67
2023/10/23 08:02:48;;;;;;;5.60;2.95;;;16.60;73.20;;;;;;5134201;27;20561;-67
2023/10/23 08:05:14;;;;;;;5.68;3.67;;;16.60;73.20;;;;;;5134059;27;20176;-69
2023/10/23 08:07:39;;;;;;;3.95;3.13;;;16.60;73.20;;;;;;5133459;27;20674;-67
2023/10/23 08:10:05;;;;;;;3.13;2.80;;;16.60;73.20;;;;;;5134043;27;20255;-67
2023/10/23 08:12:30;;;;;;;3.47;2.70;;;16.60;73.20;;;;;;5133115;27;20180;-67
2023/10/23 08:14:56;;;;;;;3.35;3.13;;;16.50;73.10;;;;;;5134040;27;20172;-67
2023/10/23 08:17:21;;;;;;;2.53;2.33;;;16.50;73.10;;;;;;5133791;27;20160;-67
2023/10/23 08:19:47;;;;;;;2.95;2.75;;;16.50;72.90;;;;;;5133101;27;20168;-67
2023/10/23 08:22:12;;;;;;;3.40;2.60;;;16.50;72.90;;;;;;5134046;27;20514;-67
2023/10/23 08:24:39;;;;;;;4.05;2.80;;;16.60;72.90;;;;;;5133784;27;20638;-67
2023/10/23 08:27:04;;;;;;;3.47;2.90;;;16.60;72.80;;;;;;5132795;27;20196;-67
2023/10/23 08:29:30;;;;;;;3.63;3.17;;;16.60;72.80;;;;;;5133675;27;20173;-67
2023/10/23 08:31:56;;;;;;;2.90;2.60;;;16.60;73.00;;;;;;5133801;27;20169;-67
2023/10/23 08:34:21;;;;;;;3.65;3.05;;;16.50;72.90;;;;;;5132744;27;20176;-68
2023/10/23 08:36:48;;;;;;;3.72;3.00;;;16.60;72.80;;;;;;5133741;27;20213;-68
2023/10/23 08:39:13;;;;;;;3.10;2.80;;;16.60;73.10;;;;;;5133499;27;20176;-68
2023/10/23 08:41:39;;;;;;;3.38;3.05;;;16.50;72.90;;;;;;5132925;27;20638;-67
2023/10/23 08:44:04;;;;;;;2.65;2.45;;;16.50;72.90;;;;;;5114985;27;20229;-67
2023/10/23 08:46:31;;;;;;;4.43;2.92;;;16.50;72.90;;;;;;5133537;27;20171;-68
2023/10/23 08:48:57;;;;;;;4.50;3.58;;;16.50;72.70;;;;;;5097783;28;20236;-67
2023/10/23 08:51:23;;;;;;;5.10;3.35;;;16.50;72.90;;;;;;5133326;28;20228;-67
2023/10/23 08:53:50;;;;;;;3.95;2.90;;;16.50;72.90;;;;;;5133665;28;20231;-67
2023/10/23 08:56:15;;;;;;;3.60;2.97;;;16.50;72.80;;;;;;5132485;28;20168;-68
2023/10/23 08:58:41;;;;;;;2.80;2.50;;;16.60;73.00;;;;;;5098244;28;20641;-68
2023/10/23 09:01:06;;;;;;;2.95;2.70;;;16.50;72.90;;;;;;5097934;28;20187;-67
2023/10/23 09:03:32;;;;;;;3.08;2.78;;;16.60;72.80;;;;;;5132440;28;20175;-67
2023/10/23 09:05:58;;;;;;;3.38;3.08;;;16.60;72.70;;;;;;5133620;28;20180;-66
2023/10/23 09:08:24;;;;;;;4.80;2.88;;;16.60;72.70;;;;;;5133457;28;20216;-67
2023/10/23 09:11:03;;;;;;;3.20;2.90;;;16.60;72.70;;;;;;5114366;28;20200;-67
2023/10/23 09:13:38;;;;;;;3.72;2.83;;;16.60;72.60;;;;;;5133289;28;20200;-67
2023/10/23 09:16:06;;;;;;;3.13;2.80;;;16.60;72.70;;;;;;5132648;28;20241;-67
2023/10/23 09:18:32;;;;;;;4.32;2.95;;;16.60;72.90;;;;;;5133392;28;20172;-67
2023/10/23 09:21:01;;;;;;;2.90;2.55;;;16.70;72.70;;;;;;5133520;28;20256;-68
2023/10/23 09:23:29;;;;;;;3.97;3.00;;;16.70;72.70;;;;;;5114654;28;20169;-68
2023/10/23 09:25:58;;;;;;;2.95;2.67;;;16.70;72.50;;;;;;5133392;28;20230;-67
2023/10/23 09:28:26;;;;;;;3.70;2.83;;;16.70;72.50;;;;;;5133129;28;20215;-67
2023/10/23 09:30:51;;;;;;;4.13;2.63;;;16.70;72.40;;;;;;5134272;28;20168;-67
2023/10/23 09:33:17;;;;;;;2.85;2.60;;;16.70;72.50;;;;;;5116993;28;20180;-67
2023/10/23 09:35:43;;;;;;;4.57;3.20;;;16.70;72.50;;;;;;5114988;28;20173;-68
2023/10/23 09:38:12;;;;;;;3.50;2.85;;;16.70;72.50;;;;;;5114152;28;20172;-68
2023/10/23 09:40:38;;;;;;;3.88;3.38;;;16.70;72.50;;;;;;5114770;28;20196;-68
2023/10/23 09:43:04;;;;;;;3.80;2.80;;;16.80;72.60;;;;;;5132926;28;20626;-68
2023/10/23 09:45:29;;;;;;;3.58;2.30;;;16.70;73.60;;;;;;5132310;28;20177;-67
2023/10/23 09:47:55;;;;;;;4.13;2.88;;;16.80;72.80;;;;;;5114529;28;20271;-67
2023/10/23 09:50:20;;;;;;;3.42;3.13;;;16.70;72.70;;;;;;5097524;28;20164;-67
2023/10/23 09:52:46;;;;;;;3.40;3.10;;;16.80;72.70;;;;;;5132258;28;20176;-67
2023/10/23 09:55:11;;;;;;;2.80;2.60;;;16.80;72.80;;;;;;5116029;27;20168;-67
2023/10/23 09:57:38;;;;;;;2.63;2.42;;;16.80;72.80;;;;;;5118198;27;20171;-68
2023/10/23 10:00:14;;;;;;;4.60;3.50;;;16.80;73.00;;;;;;5136003;27;20177;-67
2023/10/23 10:03:11;;;;;;;2.63;2.42;;;16.80;72.80;;;;;;5136718;27;20191;-67
2023/10/23 10:05:57;;;;;;;3.10;2.50;;;16.80;73.10;;;;;;5119486;27;20185;-66
2023/10/23 10:08:22;;;;;;;2.78;2.45;;;16.80;73.20;;;;;;5117996;27;20216;-67
2023/10/23 10:10:49;;;;;;;3.05;2.60;;;16.80;73.10;;;;;;5101254;27;20268;-67
2023/10/23 10:13:18;;;;;;;3.00;2.75;;;16.90;73.40;;;;;;5117193;27;20172;-67
2023/10/23 10:15:43;;;;;;;3.47;2.63;;;16.90;73.30;;;;;;5117933;27;20177;-67
2023/10/23 10:18:10;;;;;;;2.67;2.35;;;16.90;73.30;;;;;;5136171;27;20176;-68
2023/10/23 10:20:36;;;;;;;3.45;3.15;;;16.90;73.30;;;;;;5135560;27;20225;-67
2023/10/23 10:23:12;;;;;;;2.75;2.55;;;16.90;73.40;;;;;;5136209;27;20196;-68
2023/10/23 10:25:38;;;;;;;2.95;2.67;;;16.90;73.20;;;;;;5101202;27;20681;-67
2023/10/23 10:28:05;;;;;;;2.90;2.70;;;16.90;73.20;;;;;;5099873;27;20681;-67
2023/10/23 10:30:50;;;;;;;3.20;2.78;;;16.90;73.10;;;;;;5135846;27;20196;-67
2023/10/23 10:33:24;;;;;;;2.72;2.53;;;16.90;73.10;;;;;;5135253;27;20169;-68
2023/10/23 10:36:04;;;;;;;3.30;2.92;;;17.00;73.10;;;;;;5135775;27;20639;-68
2023/10/23 10:38:31;;;;;;;2.70;2.50;;;17.00;73.00;;;;;;5118620;27;20184;-68
2023/10/23 10:41:01;;;;;;;3.08;2.78;;;16.90;72.90;;;;;;5135272;27;20176;-68
2023/10/23 10:43:37;;;;;;;3.17;2.88;;;17.00;72.80;;;;;;5135625;27;20180;-68
2023/10/23 10:46:26;;;;;;;2.95;2.70;;;17.00;72.80;;;;;;5135808;27;20184;-68
2023/10/23 10:48:53;;;;;;;3.00;2.70;;;17.00;72.80;;;;;;5119607;27;20228;-68
2023/10/23 10:51:23;;;;;;;2.72;2.40;;;17.00;72.80;;;;;;5135427;27;20669;-68
2023/10/23 10:54:03;;;;;;;3.42;3.05;;;17.00;72.70;;;;;;5135513;27;20176;-68
2023/10/23 10:56:29;;;;;;;3.38;3.08;;;17.00;72.80;;;;;;5118741;27;20190;-68
2023/10/23 10:58:57;;;;;;;3.05;2.67;;;17.00;72.80;;;;;;5117552;27;20183;-68
2023/10/23 11:01:23;;;;;;;3.13;2.60;;;17.00;72.70;;;;;;5116231;27;20176;-70
2023/10/23 11:03:48;;;;;;;3.28;2.80;;;17.10;72.80;;;;;;5135450;27;20164;-68
2023/10/23 11:06:14;;;;;;;2.78;2.58;;;17.10;72.80;;;;;;5135026;27;20173;-68
2023/10/23 11:08:40;;;;;;;3.58;3.25;;;17.10;72.80;;;;;;5134719;27;20599;-68
2023/10/23 11:11:05;;;;;;;2.78;2.58;;;17.10;72.80;;;;;;5135348;27;20172;-68
2023/10/23 11:13:32;;;;;;;3.30;2.70;;;17.00;72.70;;;;;;5134915;27;20542;-68
2023/10/23 11:15:57;;;;;;;3.78;3.15;;;17.10;72.70;;;;;;5134611;27;20180;-67
2023/10/23 11:18:23;;;;;;;3.03;2.83;;;17.10;72.80;;;;;;5134941;27;20168;-67
2023/10/23 11:20:48;;;;;;;3.63;3.33;;;17.10;72.80;;;;;;5135056;27;20173;-68
2023/10/23 11:23:17;;;;;;;4.25;3.20;;;17.10;72.80;;;;;;5134297;27;20177;-67
2023/10/23 11:25:46;;;;;;;3.80;3.40;;;17.10;73.10;;;;;;5134818;27;20639;-66
2023/10/23 11:28:12;;;;;;;4.18;3.10;;;17.10;72.90;;;;;;5134504;27;20231;-66
2023/10/23 11:30:44;;;;;;;3.88;3.08;;;17.10;72.80;;;;;;5133990;27;20168;-74
2023/10/23 11:33:09;;;;;;;4.13;3.72;;;17.20;72.90;;;;;;5134856;27;20288;-74
2023/10/23 11:35:35;;;;;;;6.35;3.50;;;17.10;72.80;;;;;;5116617;27;20172;-74
2023/10/23 11:38:00;;;;;;;5.88;3.42;;;17.20;72.90;;;;;;5134074;27;20172;-74
2023/10/23 11:40:26;;;;;;;6.13;3.33;;;17.20;72.80;;;;;;5135174;27;20168;-74
2023/10/23 11:42:54;;;;;;;5.55;3.63;;;17.20;72.80;;;;;;5117239;27;20251;-75
2023/10/23 11:45:19;;;;;;;6.18;3.60;;;17.20;72.90;;;;;;5134089;27;20232;-72
2023/10/23 11:47:45;;;;;;;4.97;3.55;;;17.20;72.80;;;;;;5134430;27;20228;-72
2023/10/23 11:50:11;;;;;;;6.03;3.42;;;17.30;72.80;;;;;;5133297;27;20177;-74
2023/10/23 11:52:43;;;;;;;4.28;3.35;;;17.30;72.80;;;;;;5133174;27;20212;-78
2023/10/23 11:55:10;;;;;;;4.00;3.30;;;17.30;72.70;;;;;;5133643;27;20164;-66
2023/10/23 11:57:39;;;;;;;7.53;4.05;;;17.30;72.80;;;;;;5132580;27;20187;-67
2023/10/23 12:00:11;;;;;;;5.53;3.67;;;17.30;72.80;;;;;;5133229;27;20195;-67
2023/10/23 12:02:37;;;;;;;4.95;3.60;;;17.30;72.80;;;;;;5133096;27;20221;-67
2023/10/23 12:05:03;;;;;;;7.20;3.40;;;17.20;72.80;;;;;;5133436;27;20168;-66
2023/10/23 12:07:28;;;;;;;5.28;3.17;;;17.20;72.90;;;;;;5133929;27;20531;-66
2023/10/23 12:09:54;;;;;;;5.03;3.60;;;17.20;72.90;;;;;;5134224;27;20221;-67
2023/10/23 12:12:19;;;;;;;7.10;3.63;;;17.20;72.90;;;;;;5114867;27;20225;-67
2023/10/23 12:14:45;;;;;;;6.15;3.47;;;17.20;72.80;;;;;;5133980;27;20168;-68
2023/10/23 12:17:11;;;;;;;7.22;3.42;;;17.20;72.70;;;;;;5134633;27;20169;-67
2023/10/23 12:19:36;;;;;;;5.10;3.50;;;17.20;72.70;;;;;;5133596;27;20199;-67
2023/10/23 12:22:02;;;;;;;6.38;3.55;;;17.20;72.70;;;;;;5133955;27;20227;-68
2023/10/23 12:24:27;;;;;;;6.97;3.70;;;17.30;72.80;;;;;;5133777;27;20592;-67
2023/10/23 12:26:53;;;;;;;5.93;3.28;;;17.30;72.80;;;;;;5133194;27;20560;-68
2023/10/23 12:29:19;;;;;;;6.57;3.72;;;17.30;72.70;;;;;;5133345;27;20717;-67
2023/10/23 12:31:45;;;;;;;4.25;3.70;;;17.30;72.70;;;;;;5133713;27;20174;-67
2023/10/23 12:34:10;;;;;;;8.23;3.65;;;17.30;72.70;;;;;;5132820;27;20619;-66
2023/10/23 12:36:36;;;;;;;4.45;2.97;;;17.30;72.70;;;;;;5133781;27;20172;-67
2023/10/23 12:39:01;;;;;;;4.47;3.22;;;17.30;72.80;;;;;;5133713;27;20172;-68
2023/10/23 12:41:30;;;;;;;4.72;3.40;;;17.20;72.70;;;;;;5132837;27;20176;-67
2023/10/23 12:43:55;;;;;;;4.13;3.10;;;17.20;72.70;;;;;;5113564;28;20172;-66